Flight Track Log - Related Links

Times and Time Zones

All times are in EDT time to prevent confusion due to time zone crossing. See the CCA1907 flight status page for this flight to view local times or setup timezone preferences in your user account.

Time Position Orientation Groundspeed Altitude Reporting Facility
EDT Latitude Longitude Course Direction KTS MPH feet Rate Location/Type
Sat 07:47:00 PM 30.5963 120.4763 North  Level Estimated
Sat 07:48:00 PM 30.6883 120.4875 North  Level Estimated
Sat 07:49:00 PM 30.7803 120.4987 North  Level Estimated
Sat 07:50:00 PM 30.8723 120.5099 North  Level Estimated
Sat 07:51:00 PM 30.9643 120.5212 North  Level Estimated
Sat 07:52:00 PM 31.0562 120.5325 North  Level Estimated
Sat 07:53:00 PM 31.1482 120.5438 North  Level Estimated
Sat 07:54:00 PM 31.2402 120.5551 North  Level Estimated
Sat 07:55:00 PM 31.3322 120.5665 North  Level Estimated
Sat 07:56:00 PM 31.4242 120.5779 North  Level Estimated
Sat 07:57:00 PM 31.5161 120.5892 North  Level Estimated
Sat 07:58:00 PM 31.6081 120.6007 North  Level Estimated
Sat 07:59:00 PM 31.7001 120.6121 North  Level Estimated
Sat 08:00:00 PM 31.7921 120.6236 North  Level Estimated
Sat 08:01:00 PM 31.8841 120.6351 North  Level Estimated
Sat 08:02:00 PM 31.9760 120.6466 North  Level Estimated
Sat 08:03:00 PM 32.0680 120.6581 North  Level Estimated
Sat 08:04:00 PM 32.1600 120.6697 North  Level Estimated
Sat 08:05:00 PM 32.2519 120.6813 North  Level Estimated
Sat 08:06:00 PM 32.3439 120.6929 North  Level Estimated
Sat 08:07:00 PM 32.4359 120.7045 North  Level Estimated
Sat 08:08:00 PM 32.5279 120.7161 North  Level Estimated
Sat 08:09:00 PM 32.6198 120.7278 North  Level Estimated
Sat 08:10:00 PM 32.7118 120.7395 North  Level Estimated
Sat 08:11:00 PM 32.8038 120.7513 North  Level Estimated
Sat 08:12:00 PM 32.8957 120.7630 North  Level Estimated
Sat 08:13:00 PM 32.9877 120.7748 North  Level Estimated
Sat 08:14:00 PM 33.0796 120.7866 North  Level Estimated
Sat 08:15:00 PM 33.1716 120.7984 North  Level Estimated
Sat 08:16:00 PM 33.2636 120.8102 North  Level Estimated
Sat 08:17:00 PM 33.3555 120.8221 North  Level Estimated
Sat 08:18:00 PM 33.4475 120.8340 North  Level Estimated
Sat 08:19:00 PM 33.5394 120.8459 North  Level Estimated
Sat 08:20:00 PM 33.6314 120.8579 North  Level Estimated
Sat 08:21:00 PM 33.7233 120.8699 North  Level Estimated
Sat 08:22:00 PM 33.8153 120.8819 North  Level Estimated
Sat 08:23:00 PM 33.9072 120.8939 North  Level Estimated
Sat 08:24:00 PM 33.9992 120.9059 North  Level Estimated
Sat 08:25:00 PM 34.0911 120.9180 North  Level Estimated
Sat 08:26:00 PM 34.1831 120.9301 North  Level Estimated
Sat 08:27:00 PM 34.2750 120.9422 North  Level Estimated
Sat 08:28:00 PM 34.3670 120.9544 North  Level Estimated
Sat 08:29:00 PM 34.4589 120.9666 North  Level Estimated
Sat 08:30:00 PM 34.5509 120.9788 North  Level Estimated
Sat 08:31:00 PM 34.6428 120.9910 North  Level Estimated
Sat 08:32:00 PM 34.7347 121.0033 North  Level Estimated
Sat 08:33:00 PM 34.8267 121.0156 North  Level Estimated
Sat 08:34:00 PM 34.9186 121.0279 North  Level Estimated
Sat 08:35:00 PM 35.0106 121.0403 North  Level Estimated
Sat 08:36:00 PM 35.1025 121.0526 North  Level Estimated
Sat 08:37:00 PM 35.1944 121.0650 North  Level Estimated
Sat 08:38:00 PM 35.2864 121.0775 North  Level Estimated
Sat 08:39:00 PM 35.3783 121.0899 North  Level Estimated
Sat 08:40:00 PM 35.4702 121.1024 North  Level Estimated
Sat 08:41:00 PM 35.5622 121.1149 North  Level Estimated
Sat 08:42:00 PM 35.6541 121.1275 North  Level Estimated
Sat 08:43:00 PM 35.7460 121.1400 North  Level Estimated
Sat 08:44:00 PM 35.8380 121.1526 North  Level Estimated
Sat 08:45:00 PM 35.9299 121.1653 North  Level Estimated
Sat 08:46:00 PM 36.0218 121.1779 North  Level Estimated
Sat 08:47:00 PM 36.1137 121.1906 North  Level Estimated
Sat 08:48:00 PM 36.2056 121.2033 North  Level Estimated
Sat 08:49:00 PM 36.2976 121.2161 North  Level Estimated
Sat 08:50:00 PM 36.3895 121.2289 North  Level Estimated
Sat 08:51:00 PM 36.4814 121.2417 North  Level Estimated
Sat 08:52:00 PM 36.5733 121.2545 North  Level Estimated
Sat 08:53:00 PM 36.6652 121.2674 North  Level Estimated
Sat 08:54:00 PM 36.7571 121.2803 North  Level Estimated
Sat 08:55:00 PM 36.8490 121.2932 North  Level Estimated
Sat 08:56:00 PM 36.9409 121.3062 North  Level Estimated
Sat 08:57:00 PM 37.0328 121.3192 North  Level Estimated
Sat 08:58:00 PM 37.1248 121.3322 North  Level Estimated
Sat 08:59:00 PM 37.2167 121.3453 North  Level Estimated
Sat 09:00:00 PM 37.3086 121.3584 North  Level Estimated
Sat 09:01:00 PM 37.4005 121.3715 North  Level Estimated
Sat 09:02:00 PM 37.4017 121.3717 North  Level Estimated
Sat 09:03:00 PM 37.4017 121.3717 218° Southwest  Level Estimated
Sat 09:04:00 PM 37.4017 121.3717 218° Southwest  Level Estimated
Sat 09:05:00 PM 37.4017 121.3717 218° Southwest  Level Estimated
Sat 09:06:00 PM 37.4017 121.3717 218° Southwest  Level Estimated
Sat 09:07:00 PM 37.4017 121.3717 218° Southwest  Level Estimated
Sat 09:08:00 PM 37.4017 121.3717 218° Southwest  Level Estimated
Sat 09:09:00 PM 37.4017 121.3717 218° Southwest  Level Estimated
Sat 09:10:00 PM 37.4017 121.3717 218° Southwest  Level Estimated
Sat 09:11:00 PM 37.4017 121.3717 218° Southwest  Level Estimated
Sat 09:12:00 PM 37.4017 121.3717 218° Southwest  Level Estimated
Sat 09:13:00 PM 37.4017 121.3717 218° Southwest  Level Estimated
Sat 09:14:00 PM 37.4017 121.3717 218° Southwest  Level Estimated
Sat 09:15:00 PM 37.4017 121.3717 218° Southwest  Level Estimated
Sat 09:16:00 PM 37.4017 121.3717 218° Southwest  Level Estimated
Sat 09:17:00 PM 37.4017 121.3717 218° Southwest  Level Estimated

Login

Don't have an account? Register now (free) for customized features, flight alerts, and more!